Time;durP1;ratioP1;P1;durP2;ratioP2;P2;SDS_P1;SDS_P2;PMS_P1;PMS_P2;Temp;Humidity;BMP_temperature;BMP_pressure;BME280_temperature;BME280_humidity;BME280_pressure;Samples;Min_cycle;Max_cycle;Signal;HPM_P1;HPM_P2
2021/04/05 00:00:16;;;;;;;;;;;28.80;81.10;;;;;;5126767;28;19938;-53
2021/04/05 00:02:46;;;;;;;;;;;28.80;81.60;;;;;;5108590;28;20115;-48
2021/04/05 00:05:17;;;;;;;;;;;28.80;81.90;;;;;;5126956;28;19899;-48
2021/04/05 00:07:46;;;;;;;;;;;28.80;81.70;;;;;;5126744;28;19914;-45
2021/04/05 00:10:14;;;;;;;;;;;28.80;82.00;;;;;;5108362;28;19938;-51
2021/04/05 00:12:40;;;;;;;;;;;28.80;82.00;;;;;;5127097;28;20173;-51
2021/04/05 00:15:07;;;;;;;;;;;28.80;82.10;;;;;;5126487;28;20149;-48
2021/04/05 00:17:36;;;;;;;;;;;28.70;82.20;;;;;;5126616;28;19953;-48
2021/04/05 00:20:10;;;;;;;;;;;28.70;82.00;;;;;;5126328;28;19900;-46
2021/04/05 00:22:40;;;;;;;;;;;28.70;82.00;;;;;;5126480;28;19994;-56
2021/04/05 00:25:06;;;;;;;;;;;28.70;81.90;;;;;;5107610;28;19900;-49
2021/04/05 00:27:32;;;;;;;;;;;28.70;81.60;;;;;;5108648;28;19908;-48
2021/04/05 00:30:00;;;;;;;;;;;28.60;81.50;;;;;;5125835;28;19908;-53
2021/04/05 00:32:26;;;;;;;;;;;28.60;81.60;;;;;;5126105;28;19915;-48
2021/04/05 00:34:52;;;;;;;;;;;28.50;81.30;;;;;;5126414;28;19907;-56
2021/04/05 00:37:18;;;;;;;;;;;28.50;81.20;;;;;;5108151;28;20215;-58
2021/04/05 00:39:45;;;;;;;;;;;28.50;81.00;;;;;;5125243;28;20107;-46
2021/04/05 00:42:11;;;;;;;;;;;28.50;81.20;;;;;;5126642;28;19911;-50
2021/04/05 00:44:37;;;;;;;;;;;28.50;81.00;;;;;;5107993;28;19927;-51
2021/04/05 00:47:04;;;;;;;;;;;28.50;81.10;;;;;;5126113;28;20161;-47
2021/04/05 00:49:31;;;;;;;;;;;28.50;80.80;;;;;;5119341;28;19904;-50
2021/04/05 00:51:57;;;;;;;;;;;28.40;80.50;;;;;;5107633;28;19912;-51
2021/04/05 00:54:43;;;;;;;;;;;28.40;80.70;;;;;;5100472;28;19908;-55
2021/04/05 00:57:10;;;;;;;;;;;28.40;80.40;;;;;;5043435;28;19909;-46
2021/04/05 00:59:36;;;;;;;;;;;28.40;80.20;;;;;;5044801;28;19901;-58
2021/04/05 01:02:02;;;;;;;;;;;28.40;80.20;;;;;;5062478;28;19912;-55
2021/04/05 01:04:29;;;;;;;;;;;28.40;80.00;;;;;;5062237;28;19901;-52
2021/04/05 01:06:55;;;;;;;;;;;28.40;79.90;;;;;;5062177;28;19951;-49
2021/04/05 01:09:21;;;;;;;;;;;28.40;80.20;;;;;;5063330;28;19901;-46
2021/04/05 01:11:47;;;;;;;;;;;28.40;80.30;;;;;;5058679;28;19909;-47
2021/04/05 01:14:13;;;;;;;;;;;28.40;80.10;;;;;;5026971;28;19905;-52
2021/04/05 01:16:40;;;;;;;;;;;28.40;79.70;;;;;;5060405;28;20169;-48
2021/04/05 01:19:06;;;;;;;;;;;28.40;79.50;;;;;;5063304;28;19908;-52
2021/04/05 01:21:33;;;;;;;;;;;28.30;79.50;;;;;;5046037;28;19979;-56
2021/04/05 01:23:59;;;;;;;;;;;28.30;79.30;;;;;;5062868;28;19916;-48
2021/04/05 01:26:25;;;;;;;;;;;28.30;79.50;;;;;;5062823;28;19926;-49
2021/04/05 01:28:52;;;;;;;;;;;28.30;79.30;;;;;;5113696;28;19975;-51
2021/04/05 01:31:18;;;;;;;;;;;28.30;79.40;;;;;;5106917;28;20210;-47
2021/04/05 01:33:46;;;;;;;;;;;28.30;79.50;;;;;;5125358;28;19904;-50
2021/04/05 01:36:13;;;;;;;;;;;28.30;79.40;;;;;;5124743;28;19997;-49
2021/04/05 01:38:45;;;;;;;;;;;28.30;79.50;;;;;;5124498;28;19993;-48
2021/04/05 01:41:11;;;;;;;;;;;28.30;79.70;;;;;;5111190;28;20215;-48
2021/04/05 01:43:37;;;;;;;;;;;28.30;79.40;;;;;;5105122;28;19915;-51
2021/04/05 01:46:08;;;;;;;;;;;28.30;79.60;;;;;;5117116;28;20092;-50
2021/04/05 01:48:34;;;;;;;;;;;28.30;79.50;;;;;;5125210;28;19911;-49
2021/04/05 01:51:02;;;;;;;;;;;28.30;79.40;;;;;;5119072;28;19935;-51
2021/04/05 01:53:29;;;;;;;;;;;28.30;79.60;;;;;;5117085;28;20279;-53
2021/04/05 01:56:02;;;;;;;;;;;28.30;78.90;;;;;;5124427;28;20206;-53
2021/04/05 01:58:28;;;;;;;;;;;28.30;78.60;;;;;;5125404;28;19950;-57
2021/04/05 02:00:55;;;;;;;;;;;28.20;78.60;;;;;;5124521;28;19951;-53
2021/04/05 02:03:22;;;;;;;;;;;28.20;78.60;;;;;;5106673;28;19918;-57
2021/04/05 02:05:51;;;;;;;;;;;28.20;78.60;;;;;;5124822;28;20263;-50
2021/04/05 02:08:22;;;;;;;;;;;28.20;78.70;;;;;;5125146;28;19939;-55
2021/04/05 02:10:49;;;;;;;;;;;28.30;78.70;;;;;;5124704;28;19899;-53
2021/04/05 02:13:15;;;;;;;;;;;28.30;78.50;;;;;;5124708;28;19908;-55
2021/04/05 02:15:41;;;;;;;;;;;28.40;78.40;;;;;;5124708;28;19899;-56
2021/04/05 02:18:10;;;;;;;;;;;28.40;78.60;;;;;;5124658;28;19915;-54
2021/04/05 02:20:37;;;;;;;;;;;28.40;78.70;;;;;;5124013;28;19922;-54
2021/04/05 02:23:03;;;;;;;;;;;28.40;79.00;;;;;;5124453;28;19916;-56
2021/04/05 02:25:30;;;;;;;;;;;28.40;78.90;;;;;;5124239;28;19910;-54
2021/04/05 02:27:57;;;;;;;;;;;28.40;78.70;;;;;;5124972;28;20022;-56
2021/04/05 02:30:27;;;;;;;;;;;28.40;78.60;;;;;;5124431;28;19900;-53
2021/04/05 02:32:55;;;;;;;;;;;28.40;78.80;;;;;;5124273;28;19915;-51
2021/04/05 02:35:22;;;;;;;;;;;28.50;78.60;;;;;;5106003;28;19903;-47
2021/04/05 02:37:51;;;;;;;;;;;28.40;78.40;;;;;;5124115;28;19915;-45
2021/04/05 02:40:17;;;;;;;;;;;28.40;78.30;;;;;;5124295;28;19930;-55
2021/04/05 02:42:43;;;;;;;;;;;28.40;78.50;;;;;;5124675;28;19957;-58
2021/04/05 02:45:10;;;;;;;;;;;28.40;78.40;;;;;;5124420;28;19942;-49
2021/04/05 02:47:37;;;;;;;;;;;28.50;78.50;;;;;;5124164;28;19908;-49
2021/04/05 02:50:07;;;;;;;;;;;28.50;78.40;;;;;;5102048;28;19908;-50
2021/04/05 02:52:36;;;;;;;;;;;28.50;78.10;;;;;;5112986;28;19915;-52
2021/04/05 02:55:07;;;;;;;;;;;28.50;78.20;;;;;;5103842;28;19900;-48
2021/04/05 02:57:37;;;;;;;;;;;28.50;78.10;;;;;;5104328;28;20238;-52
2021/04/05 03:00:06;;;;;;;;;;;28.40;77.90;;;;;;5103988;28;19945;-53
2021/04/05 03:02:32;;;;;;;;;;;28.40;78.00;;;;;;5103753;28;20123;-54
2021/04/05 03:05:00;;;;;;;;;;;28.40;78.20;;;;;;5103959;28;20093;-54
2021/04/05 03:07:26;;;;;;;;;;;28.40;78.10;;;;;;5104251;28;20115;-53
2021/04/05 03:09:52;;;;;;;;;;;28.40;78.20;;;;;;5103792;28;19963;-54
2021/04/05 03:12:18;;;;;;;;;;;28.40;78.20;;;;;;5104060;28;19908;-53
2021/04/05 03:14:45;;;;;;;;;;;28.40;78.10;;;;;;5103875;28;19908;-53
2021/04/05 03:17:12;;;;;;;;;;;28.40;78.10;;;;;;5103378;28;19908;-57
2021/04/05 03:19:39;;;;;;;;;;;28.40;78.00;;;;;;5103860;28;19904;-53
2021/04/05 03:22:05;;;;;;;;;;;28.40;78.20;;;;;;5103489;28;20202;-51
2021/04/05 03:24:34;;;;;;;;;;;28.40;78.20;;;;;;5103583;28;19923;-51
2021/04/05 03:27:00;;;;;;;;;;;28.40;78.00;;;;;;5103921;28;19938;-50
2021/04/05 03:29:27;;;;;;;;;;;28.40;78.20;;;;;;5104130;28;19900;-43
2021/04/05 03:31:55;;;;;;;;;;;28.40;78.20;;;;;;5105777;28;19908;-47
2021/04/05 03:34:25;;;;;;;;;;;28.40;78.20;;;;;;5110367;28;20192;-54
2021/04/05 03:36:54;;;;;;;;;;;28.40;78.00;;;;;;5127731;28;19945;-52
2021/04/05 03:39:21;;;;;;;;;;;28.40;78.00;;;;;;5127592;28;19959;-53
2021/04/05 03:41:54;;;;;;;;;;;28.40;78.10;;;;;;5109400;28;19948;-53
2021/04/05 03:44:47;;;;;;;;;;;28.40;78.00;;;;;;5127600;28;20013;-52
2021/04/05 03:47:29;;;;;;;;;;;28.40;78.20;;;;;;5123294;28;19946;-54
2021/04/05 03:50:01;;;;;;;;;;;28.40;78.00;;;;;;5123310;28;20208;-52
2021/04/05 03:52:29;;;;;;;;;;;28.40;78.30;;;;;;5116332;28;19915;-52
2021/04/05 03:54:59;;;;;;;;;;;28.40;78.40;;;;;;5127411;28;19906;-45
2021/04/05 03:57:27;;;;;;;;;;;28.40;78.50;;;;;;5127695;28;19908;-46
2021/04/05 03:59:55;;;;;;;;;;;28.40;78.20;;;;;;5126543;28;19903;-44
2021/04/05 04:02:23;;;;;;;;;;;28.40;78.20;;;;;;5126899;28;19916;-47
2021/04/05 04:05:01;;;;;;;;;;;28.40;78.60;;;;;;5126647;28;19899;-43
2021/04/05 04:08:13;;;;;;;;;;;28.30;78.60;;;;;;5126630;28;19918;-45
2021/04/05 04:10:19;;;;;;;;;;;28.30;78.70;;;;;;5118915;28;20115;-55
2021/04/05 04:12:47;;;;;;;;;;;28.40;78.50;;;;;;5127326;28;19908;-45
2021/04/05 04:15:14;;;;;;;;;;;28.30;78.40;;;;;;5126557;28;19966;-46
2021/04/05 04:17:41;;;;;;;;;;;28.30;78.30;;;;;;5127290;28;19914;-45
2021/04/05 04:20:11;;;;;;;;;;;28.30;78.30;;;;;;5126822;28;20206;-49
2021/04/05 04:22:38;;;;;;;;;;;28.30;78.40;;;;;;5126702;28;20270;-53
2021/04/05 04:25:06;;;;;;;;;;;28.30;78.40;;;;;;5126802;28;19900;-50
2021/04/05 04:27:32;;;;;;;;;;;28.30;78.30;;;;;;5127086;28;19908;-55
2021/04/05 04:29:58;;;;;;;;;;;28.30;78.40;;;;;;5126588;28;19975;-54
2021/04/05 04:32:25;;;;;;;;;;;28.30;78.50;;;;;;5127053;28;19915;-53
2021/04/05 04:34:51;;;;;;;;;;;28.30;78.50;;;;;;5126903;28;20203;-52
2021/04/05 04:37:18;;;;;;;;;;;28.30;78.50;;;;;;5126489;28;19908;-53
2021/04/05 04:39:44;;;;;;;;;;;28.30;78.50;;;;;;5126570;28;20095;-51
2021/04/05 04:42:11;;;;;;;;;;;28.30;78.50;;;;;;5126597;28;19912;-56
2021/04/05 04:44:38;;;;;;;;;;;28.30;78.50;;;;;;5125976;28;19900;-50
2021/04/05 04:47:05;;;;;;;;;;;28.30;78.60;;;;;;5126600;28;19911;-55
2021/04/05 04:49:31;;;;;;;;;;;28.30;78.60;;;;;;5124655;28;19934;-53
2021/04/05 04:51:57;;;;;;;;;;;28.30;78.70;;;;;;5116707;28;19945;-52
2021/04/05 04:54:24;;;;;;;;;;;28.30;78.90;;;;;;5105940;28;19946;-56
2021/04/05 04:56:51;;;;;;;;;;;28.30;78.90;;;;;;5105921;28;19979;-51
2021/04/05 04:59:18;;;;;;;;;;;28.20;78.90;;;;;;5105140;28;20204;-46
2021/04/05 05:01:45;;;;;;;;;;;28.20;79.00;;;;;;5105693;28;19996;-46
2021/04/05 05:04:23;;;;;;;;;;;28.20;78.80;;;;;;5105738;28;19953;-49
2021/04/05 05:06:52;;;;;;;;;;;28.20;79.00;;;;;;5105652;28;19965;-49
2021/04/05 05:09:19;;;;;;;;;;;28.20;79.10;;;;;;5105557;28;19907;-47
2021/04/05 05:11:45;;;;;;;;;;;28.20;78.90;;;;;;5105581;28;19915;-50
2021/04/05 05:14:12;;;;;;;;;;;28.20;78.90;;;;;;5105983;28;19906;-49
2021/04/05 05:16:38;;;;;;;;;;;28.20;78.90;;;;;;5116029;28;20147;-47
2021/04/05 05:19:04;;;;;;;;;;;28.20;78.90;;;;;;5105451;28;19907;-51
2021/04/05 05:21:31;;;;;;;;;;;28.20;78.80;;;;;;5105043;28;19978;-52
2021/04/05 05:23:58;;;;;;;;;;;28.20;79.00;;;;;;5105191;28;20241;-47
2021/04/05 05:26:25;;;;;;;;;;;28.20;79.30;;;;;;5108816;28;19937;-44
2021/04/05 05:28:52;;;;;;;;;;;28.20;79.30;;;;;;5125128;28;20016;-47
2021/04/05 05:31:19;;;;;;;;;;;28.20;79.20;;;;;;5125162;28;19899;-47
2021/04/05 05:33:45;;;;;;;;;;;28.20;79.40;;;;;;5124933;28;19975;-52
2021/04/05 05:36:12;;;;;;;;;;;28.20;79.30;;;;;;5124447;28;19904;-51
2021/04/05 05:38:38;;;;;;;;;;;28.20;79.40;;;;;;5124483;28;19984;-43
2021/04/05 05:41:09;;;;;;;;;;;28.20;79.50;;;;;;5125272;28;20194;-52
2021/04/05 05:43:37;;;;;;;;;;;28.20;79.50;;;;;;5124731;28;19911;-51
2021/04/05 05:46:08;;;;;;;;;;;28.20;79.50;;;;;;5125257;28;20152;-43
2021/04/05 05:48:46;;;;;;;;;;;28.20;79.40;;;;;;5125683;28;20009;-48
2021/04/05 05:51:15;;;;;;;;;;;28.20;79.40;;;;;;5118828;28;20206;-51
2021/04/05 05:53:53;;;;;;;;;;;28.20;79.80;;;;;;5105218;28;19983;-53
2021/04/05 05:56:33;;;;;;;;;;;28.20;79.90;;;;;;5104838;28;20211;-45
2021/04/05 05:59:02;;;;;;;;;;;28.20;79.90;;;;;;5104352;28;20175;-47
2021/04/05 06:01:37;;;;;;;;;;;28.20;80.20;;;;;;5104717;28;19900;-54
2021/04/05 06:04:22;;;;;;;;;;;28.20;80.30;;;;;;5104502;28;19926;-48
2021/04/05 06:07:27;;;;;;;;;;;28.20;80.30;;;;;;5104497;28;19946;-47
2021/04/05 06:10:10;;;;;;;;;;;28.10;80.30;;;;;;5042407;28;19908;-43
2021/04/05 06:12:40;;;;;;;;;;;28.20;80.50;;;;;;5042564;28;20228;-45
2021/04/05 06:15:06;;;;;;;;;;;28.10;80.10;;;;;;5080385;28;19900;-47
2021/04/05 06:17:45;;;;;;;;;;;28.20;79.90;;;;;;5104886;28;20119;-51
2021/04/05 06:20:30;;;;;;;;;;;28.20;79.80;;;;;;5104363;28;19923;-47
2021/04/05 06:23:15;;;;;;;;;;;28.10;79.60;;;;;;5104193;28;20223;-56
2021/04/05 06:25:53;;;;;;;;;;;28.10;79.60;;;;;;5104290;28;19942;-52
2021/04/05 06:28:38;;;;;;;;;;;28.10;79.60;;;;;;5104570;28;19915;-43
2021/04/05 06:31:15;;;;;;;;;;;28.10;79.40;;;;;;5104308;28;19923;-54
2021/04/05 06:33:50;;;;;;;;;;;28.10;79.60;;;;;;5104207;28;19908;-49
2021/04/05 06:36:23;;;;;;;;;;;28.10;79.60;;;;;;5104088;28;19953;-45
2021/04/05 06:38:49;;;;;;;;;;;28.10;79.50;;;;;;5104126;28;20181;-44
2021/04/05 06:41:15;;;;;;;;;;;28.10;79.80;;;;;;5104092;28;19907;-49
2021/04/05 06:43:48;;;;;;;;;;;28.10;79.70;;;;;;5103683;28;19912;-46
2021/04/05 06:46:33;;;;;;;;;;;28.10;79.60;;;;;;5104233;28;19900;-47
2021/04/05 06:49:14;;;;;;;;;;;28.10;79.40;;;;;;5104208;28;20077;-59
2021/04/05 06:51:58;;;;;;;;;;;28.10;79.20;;;;;;5104109;28;19915;-52
2021/04/05 06:54:43;;;;;;;;;;;28.10;79.20;;;;;;5104412;28;20128;-47
2021/04/05 06:57:18;;;;;;;;;;;28.10;79.10;;;;;;5104187;28;19908;-51
2021/04/05 07:00:01;;;;;;;;;;;28.10;79.10;;;;;;5103842;28;19906;-44
2021/04/05 07:02:40;;;;;;;;;;;28.10;79.10;;;;;;5103998;28;19926;-50
2021/04/05 07:05:09;;;;;;;;;;;28.00;79.10;;;;;;5105796;28;19907;-49
2021/04/05 07:07:41;;;;;;;;;;;28.00;79.00;;;;;;5108201;28;19904;-55
2021/04/05 07:10:09;;;;;;;;;;;28.00;79.00;;;;;;5108276;28;20208;-45
2021/04/05 07:12:54;;;;;;;;;;;28.00;78.90;;;;;;5107893;28;19904;-41
2021/04/05 07:15:33;;;;;;;;;;;28.00;78.90;;;;;;5107657;28;20100;-44
2021/04/05 07:18:02;;;;;;;;;;;28.00;78.90;;;;;;5108171;28;19935;-45
2021/04/05 07:20:51;;;;;;;;;;;28.00;79.10;;;;;;5107921;28;19910;-45
2021/04/05 07:23:36;;;;;;;;;;;28.00;79.30;;;;;;5078744;28;19916;-50
2021/04/05 07:26:17;;;;;;;;;;;28.00;79.30;;;;;;5107744;28;19923;-45
2021/04/05 07:28:48;;;;;;;;;;;28.00;79.40;;;;;;5107164;28;20223;-46
2021/04/05 07:31:34;;;;;;;;;;;28.00;79.50;;;;;;5107582;28;19907;-47
2021/04/05 07:34:18;;;;;;;;;;;28.00;79.60;;;;;;5107209;28;19904;-43
2021/04/05 07:36:50;;;;;;;;;;;28.00;79.70;;;;;;5107302;28;19938;-47
2021/04/05 07:39:22;;;;;;;;;;;28.00;79.50;;;;;;5107331;28;19900;-43
2021/04/05 07:41:48;;;;;;;;;;;28.00;80.00;;;;;;5107179;28;19942;-52
2021/04/05 07:44:18;;;;;;;;;;;28.00;79.50;;;;;;5106871;28;20124;-47
2021/04/05 07:46:47;;;;;;;;;;;28.00;79.50;;;;;;5107252;28;19911;-53
2021/04/05 07:49:16;;;;;;;;;;;28.00;79.30;;;;;;5107179;28;19941;-51
2021/04/05 07:51:46;;;;;;;;;;;28.00;79.30;;;;;;5107139;28;19972;-49
2021/04/05 07:54:13;;;;;;;;;;;28.00;79.20;;;;;;5107039;28;20162;-46
2021/04/05 07:56:42;;;;;;;;;;;28.00;79.20;;;;;;5107089;28;19949;-51
2021/04/05 07:59:11;;;;;;;;;;;28.00;79.30;;;;;;5106642;28;19903;-49
2021/04/05 08:01:43;;;;;;;;;;;28.00;79.30;;;;;;5088902;28;19904;-44
2021/04/05 08:04:15;;;;;;;;;;;28.00;79.20;;;;;;5107048;28;19915;-45
2021/04/05 08:07:01;;;;;;;;;;;28.00;79.20;;;;;;5106692;28;19904;-46
2021/04/05 08:09:34;;;;;;;;;;;27.90;79.30;;;;;;5075555;28;19911;-48
2021/04/05 08:12:07;;;;;;;;;;;27.90;79.40;;;;;;5106579;28;19904;-51
2021/04/05 08:14:52;;;;;;;;;;;27.90;79.40;;;;;;5106771;28;19911;-46
2021/04/05 08:17:31;;;;;;;;;;;27.90;79.60;;;;;;5106470;28;19904;-50
2021/04/05 08:20:17;;;;;;;;;;;27.90;79.80;;;;;;5106420;28;19911;-53
2021/04/05 08:22:43;;;;;;;;;;;27.90;80.00;;;;;;5095598;28;19919;-58
2021/04/05 08:25:13;;;;;;;;;;;27.90;80.10;;;;;;5106748;28;19935;-49
2021/04/05 08:27:51;;;;;;;;;;;27.90;80.30;;;;;;5106211;28;19958;-47
2021/04/05 08:30:33;;;;;;;;;;;27.90;81.00;;;;;;5106466;28;19900;-44
2021/04/05 08:33:23;;;;;;;;;;;27.90;80.80;;;;;;5106629;28;19908;-47
2021/04/05 08:35:51;;;;;;;;;;;27.90;81.10;;;;;;5077533;28;19923;-47
2021/04/05 08:38:24;;;;;;;;;;;27.80;81.10;;;;;;5106407;28;19908;-44
2021/04/05 08:41:25;;;;;;;;;;;27.80;81.20;;;;;;5106082;28;19904;-51
2021/04/05 08:43:57;;;;;;;;;;;27.80;81.40;;;;;;5043780;28;19913;-52
2021/04/05 08:46:25;;;;;;;;;;;27.80;81.60;;;;;;5096001;28;19907;-43
2021/04/05 08:48:52;;;;;;;;;;;27.80;81.50;;;;;;5105780;28;19907;-44
2021/04/05 08:51:39;;;;;;;;;;;27.80;81.40;;;;;;5106079;28;20111;-45
2021/04/05 08:54:06;;;;;;;;;;;27.80;81.60;;;;;;5095168;28;19900;-52
2021/04/05 08:56:52;;;;;;;;;;;27.80;81.60;;;;;;5105804;28;20129;-51
2021/04/05 08:59:38;;;;;;;;;;;27.80;81.60;;;;;;5105456;28;19900;-52
2021/04/05 09:02:08;;;;;;;;;;;27.70;81.60;;;;;;5105444;28;19946;-46
2021/04/05 09:04:34;;;;;;;;;;;27.80;81.70;;;;;;5105604;28;19900;-45
2021/04/05 09:07:19;;;;;;;;;;;27.70;81.70;;;;;;5105607;28;19975;-44
2021/04/05 09:09:47;;;;;;;;;;;27.70;81.70;;;;;;5105455;28;19900;-42
2021/04/05 09:12:13;;;;;;;;;;;27.70;82.00;;;;;;5105609;28;19908;-48
2021/04/05 09:14:55;;;;;;;;;;;27.70;82.00;;;;;;5105622;28;20100;-46
2021/04/05 09:17:28;;;;;;;;;;;27.70;82.10;;;;;;5105748;28;19982;-51
2021/04/05 09:20:03;;;;;;;;;;;27.70;82.40;;;;;;5105424;28;19900;-44
2021/04/05 09:22:29;;;;;;;;;;;27.70;82.60;;;;;;5104923;28;19983;-51
2021/04/05 09:24:56;;;;;;;;;;;27.70;82.60;;;;;;5105379;28;19922;-44
2021/04/05 09:27:22;;;;;;;;;;;27.70;82.70;;;;;;5104504;28;19914;-46
2021/04/05 09:29:48;;;;;;;;;;;27.70;82.80;;;;;;5105062;28;20100;-46
2021/04/05 09:32:36;;;;;;;;;;;27.60;82.90;;;;;;5105541;28;19915;-44
2021/04/05 09:35:19;;;;;;;;;;;27.70;83.60;;;;;;5105020;28;19900;-44
2021/04/05 09:37:54;;;;;;;;;;;27.60;83.10;;;;;;5105159;28;19915;-45
2021/04/05 09:40:20;;;;;;;;;;;27.60;83.70;;;;;;5104778;28;19900;-48
2021/04/05 09:43:04;;;;;;;;;;;27.60;83.70;;;;;;5104639;28;19919;-45
2021/04/05 09:45:34;;;;;;;;;;;27.60;83.90;;;;;;5104954;28;19953;-46
2021/04/05 09:48:06;;;;;;;;;;;27.60;84.00;;;;;;5105304;28;19908;-46
2021/04/05 09:50:38;;;;;;;;;;;27.60;84.30;;;;;;5105024;28;19900;-46
2021/04/05 09:53:04;;;;;;;;;;;27.60;84.40;;;;;;5105138;28;20168;-43
2021/04/05 09:55:33;;;;;;;;;;;27.60;84.70;;;;;;5104983;28;20218;-43
2021/04/05 09:58:02;;;;;;;;;;;27.50;84.50;;;;;;5110255;28;20006;-48
2021/04/05 10:00:29;;;;;;;;;;;27.50;84.50;;;;;;5124990;28;19899;-53
2021/04/05 10:03:01;;;;;;;;;;;27.50;84.80;;;;;;5124903;28;19956;-52
2021/04/05 10:05:27;;;;;;;;;;;27.50;84.90;;;;;;5125063;28;20126;-57
2021/04/05 10:07:55;;;;;;;;;;;27.50;85.00;;;;;;5125479;28;19907;-43
2021/04/05 10:10:22;;;;;;;;;;;27.50;85.20;;;;;;5124868;28;19900;-43
2021/04/05 10:12:50;;;;;;;;;;;27.40;85.20;;;;;;5124763;28;19908;-51
2021/04/05 10:15:17;;;;;;;;;;;27.50;85.40;;;;;;5124815;28;19906;-45
2021/04/05 10:17:48;;;;;;;;;;;27.50;85.40;;;;;;5124996;28;19931;-43
2021/04/05 10:20:14;;;;;;;;;;;27.50;85.60;;;;;;5124589;28;19935;-42
2021/04/05 10:22:42;;;;;;;;;;;27.40;85.50;;;;;;5124610;28;19915;-43
2021/04/05 10:25:09;;;;;;;;;;;27.50;85.50;;;;;;5124694;28;20188;-47
2021/04/05 10:27:36;;;;;;;;;;;27.40;85.80;;;;;;5124451;28;19915;-43
2021/04/05 10:30:03;;;;;;;;;;;27.40;86.10;;;;;;5124591;28;19942;-46
2021/04/05 10:32:29;;;;;;;;;;;27.40;86.00;;;;;;5125028;28;19931;-50
2021/04/05 10:34:57;;;;;;;;;;;27.40;86.10;;;;;;5124502;28;19900;-47
2021/04/05 10:37:30;;;;;;;;;;;27.30;85.90;;;;;;5124780;28;19914;-44
2021/04/05 10:39:58;;;;;;;;;;;27.40;86.20;;;;;;5127863;28;20214;-47
2021/04/05 10:42:33;;;;;;;;;;;27.40;86.20;;;;;;5128384;28;19912;-45
2021/04/05 10:45:05;;;;;;;;;;;27.30;86.00;;;;;;5128693;28;20169;-56
2021/04/05 10:47:54;;;;;;;;;;;27.30;85.90;;;;;;5128782;28;19907;-47
2021/04/05 10:50:25;;;;;;;;;;;27.30;86.00;;;;;;5090530;28;19899;-44
2021/04/05 10:52:53;;;;;;;;;;;27.30;86.20;;;;;;5128381;28;19915;-46
2021/04/05 10:55:21;;;;;;;;;;;27.30;86.40;;;;;;5110074;28;19900;-46
2021/04/05 10:57:52;;;;;;;;;;;27.30;86.50;;;;;;5128803;28;19907;-52
2021/04/05 11:00:20;;;;;;;;;;;27.30;86.10;;;;;;5128310;28;19906;-50
2021/04/05 11:03:01;;;;;;;;;;;27.30;86.20;;;;;;5128695;28;19911;-46
2021/04/05 11:05:31;;;;;;;;;;;27.30;86.10;;;;;;5122968;28;20237;-46
2021/04/05 11:08:01;;;;;;;;;;;27.30;86.30;;;;;;5108103;28;19989;-46
2021/04/05 11:10:29;;;;;;;;;;;27.20;86.30;;;;;;5107438;28;19904;-47
2021/04/05 11:13:03;;;;;;;;;;;27.30;86.50;;;;;;5107913;28;19914;-43
2021/04/05 11:15:30;;;;;;;;;;;27.30;86.40;;;;;;5107849;28;19900;-43
2021/04/05 11:17:57;;;;;;;;;;;27.30;86.40;;;;;;5108270;28;19914;-45
2021/04/05 11:20:29;;;;;;;;;;;27.30;86.90;;;;;;5107563;28;19945;-54
2021/04/05 11:23:09;;;;;;;;;;;27.30;86.50;;;;;;5106780;28;19916;-47
2021/04/05 11:25:36;;;;;;;;;;;27.30;86.60;;;;;;5105361;28;19900;-53
2021/04/05 11:28:10;;;;;;;;;;;27.30;86.60;;;;;;5106197;28;19908;-50
2021/04/05 11:30:38;;;;;;;;;;;27.30;86.60;;;;;;5124626;28;19938;-49
2021/04/05 11:33:05;;;;;;;;;;;27.30;86.60;;;;;;5118981;28;19942;-45
2021/04/05 11:35:32;;;;;;;;;;;27.30;86.60;;;;;;5106519;28;19948;-48
2021/04/05 11:38:00;;;;;;;;;;;27.30;86.80;;;;;;5106499;28;19911;-50
2021/04/05 11:40:27;;;;;;;;;;;27.30;86.60;;;;;;5106779;28;19923;-53
2021/04/05 11:42:54;;;;;;;;;;;27.30;86.60;;;;;;5107610;28;20145;-53
2021/04/05 11:45:34;;;;;;;;;;;27.30;86.30;;;;;;5107125;28;19927;-52
2021/04/05 11:48:05;;;;;;;;;;;27.30;86.30;;;;;;5107534;28;19945;-56
2021/04/05 11:50:32;;;;;;;;;;;27.30;86.30;;;;;;5106388;28;19975;-56
2021/04/05 11:53:08;;;;;;;;;;;27.30;86.40;;;;;;5109739;28;19904;-51
2021/04/05 11:55:37;;;;;;;;;;;27.40;86.50;;;;;;5127187;28;19911;-50
2021/04/05 11:58:11;;;;;;;;;;;27.40;86.40;;;;;;5127798;28;20119;-48
2021/04/05 12:00:51;;;;;;;;;;;27.40;86.40;;;;;;5123080;28;19904;-49
2021/04/05 12:03:17;;;;;;;;;;;27.40;86.30;;;;;;5107355;28;19949;-53
2021/04/05 12:05:48;;;;;;;;;;;27.50;86.30;;;;;;5107103;28;19912;-53
2021/04/05 12:08:21;;;;;;;;;;;27.50;86.50;;;;;;5107266;28;19935;-52
2021/04/05 12:10:50;;;;;;;;;;;27.50;86.30;;;;;;5106413;28;19911;-48
2021/04/05 12:13:42;;;;;;;;;;;27.50;86.20;;;;;;5107095;28;20228;-54
2021/04/05 12:16:09;;;;;;;;;;;27.50;86.10;;;;;;5103605;28;20108;-53
2021/04/05 12:18:35;;;;;;;;;;;27.50;86.20;;;;;;5107153;28;19946;-48
2021/04/05 12:21:10;;;;;;;;;;;27.60;86.20;;;;;;5106574;28;19967;-54
2021/04/05 12:23:36;;;;;;;;;;;27.60;86.50;;;;;;5106405;28;19923;-53
2021/04/05 12:26:03;;;;;;;;;;;27.60;86.50;;;;;;5106180;28;20100;-51
2021/04/05 12:28:33;;;;;;;;;;;27.60;86.80;;;;;;5107016;28;19912;-53
2021/04/05 12:31:00;;;;;;;;;;;27.60;86.90;;;;;;5106384;28;19963;-50
2021/04/05 12:33:26;;;;;;;;;;;27.60;87.10;;;;;;5106783;28;20100;-47
2021/04/05 12:35:53;;;;;;;;;;;27.70;87.30;;;;;;5106370;28;20131;-51
2021/04/05 12:38:25;;;;;;;;;;;27.60;87.60;;;;;;5106462;28;19957;-54
2021/04/05 12:40:52;;;;;;;;;;;27.70;87.70;;;;;;5105944;28;20241;-51
2021/04/05 12:43:23;;;;;;;;;;;27.70;88.40;;;;;;5106619;28;19912;-51
2021/04/05 12:45:51;;;;;;;;;;;27.70;88.60;;;;;;5106059;28;20203;-49
2021/04/05 12:48:21;;;;;;;;;;;27.70;88.40;;;;;;5106448;28;19935;-50
2021/04/05 12:50:48;;;;;;;;;;;27.70;88.40;;;;;;5105994;28;19900;-52
2021/04/05 12:53:14;;;;;;;;;;;27.70;88.40;;;;;;5106698;28;19908;-55
2021/04/05 12:55:41;;;;;;;;;;;27.70;87.80;;;;;;5105486;28;19900;-49
2021/04/05 12:58:07;;;;;;;;;;;27.80;87.30;;;;;;5106232;28;19908;-51
2021/04/05 13:00:43;;;;;;;;;;;27.80;87.00;;;;;;5105864;28;19960;-46
2021/04/05 13:03:09;;;;;;;;;;;27.80;86.50;;;;;;5112465;28;19918;-46
2021/04/05 13:05:38;;;;;;;;;;;27.80;86.60;;;;;;5106039;28;19908;-52
2021/04/05 13:08:07;;;;;;;;;;;27.80;86.40;;;;;;5105988;28;19908;-45
2021/04/05 13:10:38;;;;;;;;;;;27.80;86.30;;;;;;5105439;28;19899;-51
2021/04/05 13:13:12;;;;;;;;;;;27.80;86.30;;;;;;5105861;28;20200;-48
2021/04/05 13:15:43;;;;;;;;;;;27.80;86.40;;;;;;5087550;28;19908;-48
2021/04/05 13:18:13;;;;;;;;;;;27.90;86.50;;;;;;5105706;28;19936;-56
2021/04/05 13:20:43;;;;;;;;;;;27.90;86.40;;;;;;5105491;28;20184;-52
2021/04/05 13:23:09;;;;;;;;;;;27.90;86.40;;;;;;5105226;28;19951;-51
2021/04/05 13:25:53;;;;;;;;;;;27.90;86.30;;;;;;5120867;28;19900;-47
2021/04/05 13:28:24;;;;;;;;;;;27.90;86.80;;;;;;5126138;28;19989;-48
2021/04/05 13:30:51;;;;;;;;;;;27.90;86.20;;;;;;5125541;28;20219;-47
2021/04/05 13:33:27;;;;;;;;;;;28.00;86.80;;;;;;5126112;28;19911;-54
2021/04/05 13:36:04;;;;;;;;;;;28.00;86.20;;;;;;5125607;28;19900;-48
2021/04/05 13:38:31;;;;;;;;;;;28.00;86.20;;;;;;5125623;28;19974;-54
2021/04/05 13:41:09;;;;;;;;;;;28.00;86.10;;;;;;5125324;28;19899;-47
2021/04/05 13:43:37;;;;;;;;;;;28.00;86.10;;;;;;5125864;28;20100;-52
2021/04/05 13:46:07;;;;;;;;;;;28.00;86.20;;;;;;5125406;28;19935;-57
2021/04/05 13:48:35;;;;;;;;;;;28.10;86.20;;;;;;5125703;28;19918;-46
2021/04/05 13:51:02;;;;;;;;;;;28.00;86.00;;;;;;5125357;28;19938;-48
2021/04/05 13:53:36;;;;;;;;;;;28.10;86.10;;;;;;5125514;28;19939;-48
2021/04/05 13:56:03;;;;;;;;;;;28.10;86.00;;;;;;5124644;28;19906;-50
2021/04/05 13:58:55;;;;;;;;;;;28.10;86.10;;;;;;5125253;28;19908;-57
2021/04/05 14:01:23;;;;;;;;;;;28.10;85.90;;;;;;5120764;28;19945;-58
2021/04/05 14:03:51;;;;;;;;;;;28.20;85.50;;;;;;5124883;28;19904;-54
2021/04/05 14:06:22;;;;;;;;;;;28.20;85.50;;;;;;5124575;28;19971;-50
2021/04/05 14:08:49;;;;;;;;;;;28.20;85.60;;;;;;5124250;28;20140;-51
2021/04/05 14:11:21;;;;;;;;;;;28.20;86.00;;;;;;5124752;28;19910;-52
2021/04/05 14:13:51;;;;;;;;;;;28.20;85.60;;;;;;5124302;28;19998;-49
2021/04/05 14:16:32;;;;;;;;;;;28.20;85.60;;;;;;5124588;28;19899;-58
2021/04/05 14:19:01;;;;;;;;;;;28.20;85.40;;;;;;5124635;28;19910;-56
2021/04/05 14:21:28;;;;;;;;;;;28.30;85.40;;;;;;5124738;28;19899;-51
2021/04/05 14:24:03;;;;;;;;;;;28.20;85.20;;;;;;5123925;28;19916;-48
2021/04/05 14:26:32;;;;;;;;;;;28.30;85.20;;;;;;5124414;28;19904;-46
2021/04/05 14:28:59;;;;;;;;;;;28.30;85.10;;;;;;5124163;28;19915;-53
2021/04/05 14:31:25;;;;;;;;;;;28.30;85.20;;;;;;5124740;28;19900;-48
2021/04/05 14:33:57;;;;;;;;;;;28.30;85.00;;;;;;5124288;28;19911;-60
2021/04/05 14:36:25;;;;;;;;;;;28.30;84.80;;;;;;5124739;28;19963;-52